Time;durP1;ratioP1;P1;durP2;ratioP2;P2;SDS_P1;SDS_P2;PMS_P1;PMS_P2;Temp;Humidity;BMP_temperature;BMP_pressure;BME280_temperature;BME280_humidity;BME280_pressure;Samples;Min_cycle;Max_cycle;Signal;HPM_P1;HPM_P2
2021/10/03 00:00:19;;;;;;;10.10;3.30;;;;;;;;;;5097184;28;20547;-72
2021/10/03 00:02:49;;;;;;;4.93;3.70;;;;;;;;;;5098739;28;20547;-72
2021/10/03 00:05:17;;;;;;;5.50;4.07;;;;;;;;;;5098035;28;20508;-71
2021/10/03 00:07:48;;;;;;;7.13;3.70;;;;;;;;;;5097613;28;21014;-72
2021/10/03 00:10:18;;;;;;;5.30;3.43;;;;;;;;;;5097493;28;20526;-72
2021/10/03 00:12:46;;;;;;;4.47;3.63;;;;;;;;;;5096972;28;20455;-72
2021/10/03 00:15:15;;;;;;;5.40;3.97;;;;;;;;;;5097181;28;20479;-72
2021/10/03 00:17:43;;;;;;;5.80;3.50;;;;;;;;;;5097588;28;20462;-72
2021/10/03 00:20:12;;;;;;;10.10;3.20;;;;;;;;;;5097482;28;20525;-72
2021/10/03 00:22:40;;;;;;;5.53;4.10;;;;;;;;;;5096818;28;20558;-71
2021/10/03 00:25:08;;;;;;;7.50;4.97;;;;;;;;;;5097279;28;20531;-72
2021/10/03 00:27:38;;;;;;;6.90;4.63;;;;;;;;;;5098081;28;20455;-72
2021/10/03 00:30:06;;;;;;;4.53;3.40;;;;;;;;;;5097339;28;20512;-71
2021/10/03 00:32:34;;;;;;;6.53;3.70;;;;;;;;;;5097526;28;20534;-72
2021/10/03 00:35:02;;;;;;;6.90;4.70;;;;;;;;;;5097916;28;20498;-72
2021/10/03 00:37:30;;;;;;;4.97;3.40;;;;;;;;;;5097291;28;20492;-72
2021/10/03 00:39:58;;;;;;;4.23;3.00;;;;;;;;;;5097849;28;20459;-72
2021/10/03 00:42:26;;;;;;;4.47;3.20;;;;;;;;;;5097355;28;20448;-72
2021/10/03 00:44:56;;;;;;;4.07;3.37;;;;;;;;;;5097962;28;20460;-72
2021/10/03 00:47:24;;;;;;;5.97;3.73;;;;;;;;;;5097731;28;20491;-72
2021/10/03 00:49:52;;;;;;;5.03;3.60;;;;;;;;;;5096901;28;20520;-72
2021/10/03 00:52:20;;;;;;;4.03;3.17;;;;;;;;;;5095664;28;20458;-72
2021/10/03 00:54:47;;;;;;;4.37;3.50;;;;;;;;;;5095376;28;20590;-71
2021/10/03 00:57:15;;;;;;;6.00;3.60;;;;;;;;;;5096358;28;20546;-73
2021/10/03 00:59:43;;;;;;;8.17;4.07;;;;;;;;;;5097141;28;20494;-72
2021/10/03 01:02:13;;;;;;;3.97;3.30;;;;;;;;;;5097040;28;20878;-72
2021/10/03 01:04:41;;;;;;;5.60;3.50;;;;;;;;;;5097217;28;20571;-71
2021/10/03 01:07:08;;;;;;;12.50;4.00;;;;;;;;;;5096836;28;20738;-71
2021/10/03 01:09:36;;;;;;;7.00;2.80;;;;;;;;;;5096616;28;20558;-71
2021/10/03 01:12:04;;;;;;;9.70;4.10;;;;;;;;;;5094673;28;20484;-72
2021/10/03 01:14:32;;;;;;;9.20;4.77;;;;;;;;;;5096134;28;20506;-71
2021/10/03 01:17:00;;;;;;;6.27;3.80;;;;;;;;;;5097105;28;20926;-71
2021/10/03 01:19:29;;;;;;;7.67;4.53;;;;;;;;;;5096489;28;20544;-71
2021/10/03 01:21:58;;;;;;;4.97;3.43;;;;;;;;;;5096836;28;20711;-71
2021/10/03 01:24:26;;;;;;;8.03;4.00;;;;;;;;;;5097162;28;20448;-72
2021/10/03 01:26:55;;;;;;;5.20;3.60;;;;;;;;;;5096903;28;20854;-72
2021/10/03 01:29:22;;;;;;;4.97;3.37;;;;;;;;;;5097236;28;20540;-72
2021/10/03 01:31:50;;;;;;;6.67;3.20;;;;;;;;;;5097013;28;20504;-72
2021/10/03 01:34:18;;;;;;;5.90;3.77;;;;;;;;;;5096901;28;20566;-72
2021/10/03 01:36:46;;;;;;;4.63;3.63;;;;;;;;;;5097008;28;20795;-71
2021/10/03 01:39:15;;;;;;;5.30;3.60;;;;;;;;;;5096773;28;20480;-71
2021/10/03 01:41:44;;;;;;;6.37;3.60;;;;;;;;;;5097026;28;20727;-71
2021/10/03 01:44:12;;;;;;;6.20;4.20;;;;;;;;;;5096620;28;20490;-70
2021/10/03 01:46:43;;;;;;;5.27;3.80;;;;;;;;;;5096741;28;20538;-71
2021/10/03 01:49:12;;;;;;;5.80;4.13;;;;;;;;;;5096512;28;20491;-72
2021/10/03 01:51:40;;;;;;;6.83;4.20;;;;;;;;;;5096409;28;20843;-72
2021/10/03 01:54:07;;;;;;;4.73;3.77;;;;;;;;;;5096736;28;20554;-72
2021/10/03 01:56:38;;;;;;;7.33;3.80;;;;;;;;;;5097106;28;20736;-72
2021/10/03 01:59:08;;;;;;;6.30;3.47;;;;;;;;;;5083553;28;20481;-73
2021/10/03 02:01:42;;;;;;;5.10;2.90;;;;;;;;;;5075883;28;20453;-73
2021/10/03 02:04:14;;;;;;;4.63;2.87;;;;;;;;;;5076897;28;20540;-72
2021/10/03 02:06:45;;;;;;;4.20;2.77;;;;;;;;;;5076245;28;20891;-72
2021/10/03 02:09:13;;;;;;;3.50;2.77;;;;;;;;;;5076542;28;20467;-72
2021/10/03 02:11:44;;;;;;;4.77;3.33;;;;;;;;;;5076510;28;20449;-72
2021/10/03 02:14:12;;;;;;;6.77;3.53;;;;;;;;;;5076375;28;20460;-71
2021/10/03 02:16:40;;;;;;;4.47;3.30;;;;;;;;;;5076702;28;20970;-72
2021/10/03 02:19:08;;;;;;;3.57;2.80;;;;;;;;;;5076437;28;20456;-72
2021/10/03 02:21:36;;;;;;;4.90;3.77;;;;;;;;;;5076358;28;20771;-73
2021/10/03 02:24:06;;;;;;;4.90;3.27;;;;;;;;;;5076330;28;20463;-72
2021/10/03 02:26:34;;;;;;;3.40;2.80;;;;;;;;;;5075941;28;20451;-73
2021/10/03 02:29:03;;;;;;;4.23;2.97;;;;;;;;;;5076249;28;20456;-72
2021/10/03 02:31:31;;;;;;;5.83;2.50;;;;;;;;;;5075645;28;20535;-72
2021/10/03 02:33:59;;;;;;;7.07;3.00;;;;;;;;;;5075857;28;20506;-72
2021/10/03 02:36:27;;;;;;;4.87;4.00;;;;;;;;;;5075654;28;20484;-72
2021/10/03 02:38:55;;;;;;;4.57;2.90;;;;;;;;;;5076206;28;20486;-72
2021/10/03 02:41:23;;;;;;;5.33;3.37;;;;;;;;;;5083216;28;20534;-72
2021/10/03 02:43:53;;;;;;;4.37;3.03;;;;;;;;;;5095766;28;20471;-71
2021/10/03 02:46:22;;;;;;;3.60;2.87;;;;;;;;;;5095921;28;20451;-72
2021/10/03 02:48:51;;;;;;;3.13;2.10;;;;;;;;;;5095984;28;20495;-72
2021/10/03 02:51:19;;;;;;;4.53;3.17;;;;;;;;;;5096183;28;20447;-72
2021/10/03 02:53:47;;;;;;;5.20;3.13;;;;;;;;;;5096166;28;20459;-72
2021/10/03 02:56:16;;;;;;;5.07;3.30;;;;;;;;;;5096081;28;21110;-71
2021/10/03 02:58:43;;;;;;;4.80;3.30;;;;;;;;;;5094949;28;20762;-72
2021/10/03 03:01:12;;;;;;;6.17;3.43;;;;;;;;;;5094861;28;20501;-72
2021/10/03 03:03:43;;;;;;;4.73;2.57;;;;;;;;;;5092094;28;20475;-72
2021/10/03 03:06:11;;;;;;;3.80;2.80;;;;;;;;;;5092293;28;20440;-72
2021/10/03 03:08:39;;;;;;;3.20;2.37;;;;;;;;;;5095091;28;20550;-72
2021/10/03 03:11:07;;;;;;;10.13;2.80;;;;;;;;;;5094975;28;20447;-72
2021/10/03 03:13:35;;;;;;;4.13;3.00;;;;;;;;;;5095225;28;20447;-71
2021/10/03 03:16:03;;;;;;;3.60;2.80;;;;;;;;;;5095756;28;20855;-71
2021/10/03 03:18:33;;;;;;;5.87;3.20;;;;;;;;;;5095373;28;20455;-71
2021/10/03 03:21:02;;;;;;;6.43;2.90;;;;;;;;;;5095314;28;20915;-71
2021/10/03 03:23:30;;;;;;;3.63;2.63;;;;;;;;;;5095978;28;20474;-71
2021/10/03 03:25:58;;;;;;;4.00;2.80;;;;;;;;;;5095632;28;20542;-71
2021/10/03 03:28:26;;;;;;;4.83;3.10;;;;;;;;;;5096460;28;20471;-71
2021/10/03 03:30:54;;;;;;;5.10;3.73;;;;;;;;;;5095779;28;20519;-71
2021/10/03 03:33:21;;;;;;;4.77;3.40;;;;;;;;;;5096720;28;20558;-71
2021/10/03 03:35:49;;;;;;;4.87;3.40;;;;;;;;;;5097911;28;20522;-72
2021/10/03 03:38:18;;;;;;;4.57;2.83;;;;;;;;;;5099485;28;20467;-71
2021/10/03 03:40:46;;;;;;;5.10;3.77;;;;;;;;;;5099034;28;20455;-71
2021/10/03 03:43:15;;;;;;;4.07;3.10;;;;;;;;;;5099341;28;20592;-72
2021/10/03 03:45:42;;;;;;;5.50;3.37;;;;;;;;;;5099263;28;20534;-72
2021/10/03 03:48:10;;;;;;;3.70;2.87;;;;;;;;;;5098865;28;20487;-71
2021/10/03 03:50:41;;;;;;;4.20;2.60;;;;;;;;;;5098924;28;20463;-72
2021/10/03 03:53:08;;;;;;;4.30;3.10;;;;;;;;;;5099330;28;20482;-72
2021/10/03 03:55:38;;;;;;;5.33;4.20;;;;;;;;;;5098845;28;20493;-72
2021/10/03 03:58:06;;;;;;;4.17;3.53;;;;;;;;;;5099677;28;20470;-73
2021/10/03 04:00:33;;;;;;;4.90;3.23;;;;;;;;;;5098645;28;20452;-73
2021/10/03 04:03:01;;;;;;;5.47;3.37;;;;;;;;;;5098560;28;21148;-72
2021/10/03 04:05:32;;;;;;;7.23;3.23;;;;;;;;;;5099094;28;20531;-72
2021/10/03 04:07:59;;;;;;;4.30;3.30;;;;;;;;;;5098530;28;20542;-73
2021/10/03 04:10:27;;;;;;;4.10;3.47;;;;;;;;;;5099294;28;20452;-73
2021/10/03 04:12:57;;;;;;;3.47;2.60;;;;;;;;;;5098657;28;20918;-72
2021/10/03 04:15:25;;;;;;;6.33;3.20;;;;;;;;;;5098767;28;20487;-73
2021/10/03 04:17:52;;;;;;;4.50;3.10;;;;;;;;;;5098600;28;20716;-73
2021/10/03 04:20:20;;;;;;;4.90;3.67;;;;;;;;;;5098990;28;20463;-72
2021/10/03 04:22:48;;;;;;;4.60;2.80;;;;;;;;;;5098581;28;20462;-72
2021/10/03 04:25:16;;;;;;;4.50;2.90;;;;;;;;;;5098182;28;20798;-72
2021/10/03 04:27:44;;;;;;;5.63;2.60;;;;;;;;;;5098020;28;20463;-72
2021/10/03 04:30:14;;;;;;;3.83;2.43;;;;;;;;;;5098569;28;20450;-72
2021/10/03 04:32:42;;;;;;;4.00;3.20;;;;;;;;;;5098340;28;20512;-72
2021/10/03 04:35:10;;;;;;;3.73;2.77;;;;;;;;;;5097897;28;20806;-72
2021/10/03 04:37:38;;;;;;;3.80;2.83;;;;;;;;;;5097832;28;20456;-72
2021/10/03 04:40:06;;;;;;;4.37;3.53;;;;;;;;;;5097687;28;20547;-72
2021/10/03 04:42:34;;;;;;;4.53;2.90;;;;;;;;;;5097243;28;20523;-72
2021/10/03 04:45:02;;;;;;;4.40;2.90;;;;;;;;;;5097827;28;20452;-72
2021/10/03 04:47:32;;;;;;;4.70;3.37;;;;;;;;;;5096974;28;20522;-72
2021/10/03 04:50:00;;;;;;;2.70;2.20;;;;;;;;;;5097236;28;20459;-72
2021/10/03 04:52:29;;;;;;;7.30;3.23;;;;;;;;;;5098173;28;20527;-72
2021/10/03 04:54:57;;;;;;;4.90;2.90;;;;;;;;;;5097800;28;20499;-72
2021/10/03 04:57:25;;;;;;;4.30;2.70;;;;;;;;;;5096618;28;20571;-72
2021/10/03 04:59:53;;;;;;;6.40;3.00;;;;;;;;;;5096940;28;20463;-72
2021/10/03 05:02:21;;;;;;;4.97;3.23;;;;;;;;;;5096626;28;20851;-72
2021/10/03 05:04:50;;;;;;;4.13;2.97;;;;;;;;;;5096867;28;20462;-72
2021/10/03 05:07:18;;;;;;;6.00;3.80;;;;;;;;;;5097288;28;20459;-72
2021/10/03 05:09:45;;;;;;;4.40;2.60;;;;;;;;;;5097632;28;20459;-72
2021/10/03 05:12:13;;;;;;;3.87;2.83;;;;;;;;;;5096881;28;20802;-72
2021/10/03 05:14:41;;;;;;;4.03;2.60;;;;;;;;;;5096969;28;20542;-72
2021/10/03 05:17:09;;;;;;;6.57;3.90;;;;;;;;;;5096329;28;20484;-72
2021/10/03 05:19:43;;;;;;;6.50;3.37;;;;;;;;;;5096149;28;20486;-72
2021/10/03 05:22:15;;;;;;;4.03;2.97;;;;;;;;;;5096794;28;20779;-72
2021/10/03 05:24:43;;;;;;;3.23;2.40;;;;;;;;;;5096887;28;20565;-72
2021/10/03 05:27:11;;;;;;;3.33;2.23;;;;;;;;;;5096349;28;20447;-72
2021/10/03 05:29:38;;;;;;;4.40;2.60;;;;;;;;;;5096779;28;20487;-72
2021/10/03 05:32:07;;;;;;;5.37;3.43;;;;;;;;;;5095477;28;21096;-72
2021/10/03 05:34:34;;;;;;;5.43;3.80;;;;;;;;;;5095917;28;20471;-72
2021/10/03 05:37:02;;;;;;;4.80;2.47;;;;;;;;;;5096779;28;20777;-72
2021/10/03 05:39:31;;;;;;;4.87;2.63;;;;;;;;;;5096992;28;20450;-71
2021/10/03 05:42:02;;;;;;;3.57;2.70;;;;;;;;;;5096503;28;20459;-71
2021/10/03 05:44:30;;;;;;;8.60;2.63;;;;;;;;;;5097163;28;20558;-71
2021/10/03 05:47:01;;;;;;;5.43;2.77;;;;;;;;;;5096937;28;20476;-71
2021/10/03 05:49:29;;;;;;;4.27;2.70;;;;;;;;;;5096586;28;20872;-71
2021/10/03 05:51:57;;;;;;;3.90;2.87;;;;;;;;;;5096796;28;20544;-71
2021/10/03 05:54:25;;;;;;;3.30;2.40;;;;;;;;;;5095810;28;20460;-70
2021/10/03 05:56:55;;;;;;;3.83;2.83;;;;;;;;;;5095784;28;20941;-71
2021/10/03 05:59:22;;;;;;;3.73;2.57;;;;;;;;;;5095649;28;20864;-71
2021/10/03 06:01:50;;;;;;;4.50;2.70;;;;;;;;;;5095893;28;20452;-72
2021/10/03 06:04:18;;;;;;;4.83;3.23;;;;;;;;;;5096784;28;20486;-72
2021/10/03 06:06:46;;;;;;;3.90;2.90;;;;;;;;;;5095797;28;20845;-71
2021/10/03 06:09:13;;;;;;;4.33;3.00;;;;;;;;;;5095828;28;20843;-72
2021/10/03 06:11:41;;;;;;;4.00;2.37;;;;;;;;;;5096797;28;20479;-72
2021/10/03 06:14:11;;;;;;;5.50;3.60;;;;;;;;;;5095803;28;20452;-72
2021/10/03 06:16:42;;;;;;;5.60;2.47;;;;;;;;;;5096398;28;20483;-72
2021/10/03 06:19:10;;;;;;;4.40;2.90;;;;;;;;;;5095839;28;20967;-72
2021/10/03 06:21:39;;;;;;;4.53;2.47;;;;;;;;;;5096235;28;20448;-72
2021/10/03 06:24:07;;;;;;;7.93;2.80;;;;;;;;;;5096469;28;20972;-72
2021/10/03 06:26:35;;;;;;;4.10;2.97;;;;;;;;;;5096468;28;20443;-71
2021/10/03 06:29:03;;;;;;;4.10;2.57;;;;;;;;;;5095350;28;20471;-71
2021/10/03 06:31:33;;;;;;;5.07;2.70;;;;;;;;;;5095588;28;20882;-73
2021/10/03 06:34:01;;;;;;;5.13;2.97;;;;;;;;;;5094844;28;20547;-72
2021/10/03 06:36:31;;;;;;;5.87;2.70;;;;;;;;;;5096064;28;20887;-72
2021/10/03 06:38:59;;;;;;;6.00;2.70;;;;;;;;;;5095942;28;20633;-72
2021/10/03 06:41:27;;;;;;;4.37;2.70;;;;;;;;;;5095000;28;20526;-72
2021/10/03 06:43:55;;;;;;;3.53;2.50;;;;;;;;;;5095076;28;20452;-72
2021/10/03 06:46:22;;;;;;;8.37;3.30;;;;;;;;;;5095003;28;20545;-72
2021/10/03 06:48:52;;;;;;;5.13;3.53;;;;;;;;;;5095983;28;20459;-70
2021/10/03 06:51:20;;;;;;;4.03;2.40;;;;;;;;;;5095661;28;20448;-73
2021/10/03 06:53:48;;;;;;;4.80;2.93;;;;;;;;;;5095575;28;20932;-73
2021/10/03 06:56:15;;;;;;;6.13;3.77;;;;;;;;;;5095322;28;20479;-73
2021/10/03 06:58:43;;;;;;;6.63;3.10;;;;;;;;;;5095593;28;20467;-73
2021/10/03 07:01:11;;;;;;;4.20;2.70;;;;;;;;;;5094949;28;20964;-73
2021/10/03 07:03:40;;;;;;;2.63;1.60;;;;;;;;;;5095570;28;20467;-73
2021/10/03 07:06:10;;;;;;;5.10;3.37;;;;;;;;;;5095572;28;20748;-73
2021/10/03 07:08:37;;;;;;;3.57;2.27;;;;;;;;;;5094010;28;20468;-73
2021/10/03 07:11:05;;;;;;;6.63;2.63;;;;;;;;;;5098003;28;20530;-73
2021/10/03 07:13:33;;;;;;;3.70;2.70;;;;;;;;;;5099340;28;20782;-73
2021/10/03 07:16:06;;;;;;;3.57;2.80;;;;;;;;;;5099137;28;20458;-73
2021/10/03 07:18:34;;;;;;;5.00;2.77;;;;;;;;;;5098616;28;20455;-72
2021/10/03 07:21:03;;;;;;;4.93;2.70;;;;;;;;;;5099528;28;20932;-73
2021/10/03 07:23:32;;;;;;;5.40;3.00;;;;;;;;;;5099166;28;20455;-72
2021/10/03 07:26:01;;;;;;;4.33;2.90;;;;;;;;;;5098529;28;20455;-73
2021/10/03 07:28:31;;;;;;;3.67;2.80;;;;;;;;;;5099294;28;20451;-72
2021/10/03 07:30:59;;;;;;;3.10;2.33;;;;;;;;;;5099689;28;20451;-72
2021/10/03 07:33:33;;;;;;;3.63;2.60;;;;;;;;;;5099725;28;20490;-73
2021/10/03 07:36:01;;;;;;;5.50;2.77;;;;;;;;;;5098284;28;20451;-72
2021/10/03 07:38:29;;;;;;;3.00;1.97;;;;;;;;;;5097784;28;20447;-73
2021/10/03 07:40:58;;;;;;;5.20;4.20;;;;;;;;;;5098895;28;20435;-73
2021/10/03 07:43:26;;;;;;;15.13;3.23;;;;;;;;;;5098934;28;21010;-73
2021/10/03 07:45:55;;;;;;;5.13;2.60;;;;;;;;;;5099943;28;20450;-73
2021/10/03 07:48:23;;;;;;;3.80;2.77;;;;;;;;;;5098812;28;20451;-73
2021/10/03 07:51:10;;;;;;;3.87;2.10;;;;;;;;;;5097863;28;20452;-73
2021/10/03 07:53:38;;;;;;;5.87;3.50;;;;;;;;;;5098253;28;20783;-73
2021/10/03 07:56:07;;;;;;;6.27;2.67;;;;;;;;;;5098328;28;20448;-72
2021/10/03 07:58:35;;;;;;;11.40;2.73;;;;;;;;;;5098292;28;20715;-72
2021/10/03 08:01:03;;;;;;;3.57;2.73;;;;;;;;;;5095666;28;20535;-73
2021/10/03 08:03:31;;;;;;;4.17;2.67;;;;;;;;;;5097315;28;20542;-73
2021/10/03 08:05:59;;;;;;;6.17;2.63;;;;;;;;;;5097522;28;20455;-72
2021/10/03 08:08:28;;;;;;;4.23;2.97;;;;;;;;;;5097341;28;20451;-73
2021/10/03 08:10:56;;;;;;;6.23;3.57;;;;;;;;;;5097731;28;20486;-72
2021/10/03 08:13:26;;;;;;;5.43;3.00;;;;;;;;;;5098282;28;20485;-72
2021/10/03 08:15:53;;;;;;;4.13;2.67;;;;;;;;;;5098694;28;20805;-71
2021/10/03 08:18:21;;;;;;;4.27;3.47;;;;;;;;;;5096630;28;20490;-72
2021/10/03 08:20:51;;;;;;;4.13;2.40;;;;;;;;;;5098375;28;20456;-72
2021/10/03 08:23:19;;;;;;;5.03;3.20;;;;;;;;;;5099038;28;20443;-73
2021/10/03 08:25:49;;;;;;;5.90;3.50;;;;;;;;;;5097411;28;20444;-72
2021/10/03 08:28:17;;;;;;;7.10;4.00;;;;;;;;;;5097418;28;20458;-72
2021/10/03 08:30:46;;;;;;;6.00;2.93;;;;;;;;;;5096442;28;20530;-72
2021/10/03 08:33:15;;;;;;;3.37;2.37;;;;;;;;;;5097269;28;20704;-72
2021/10/03 08:35:42;;;;;;;7.50;3.33;;;;;;;;;;5097769;28;20542;-73
2021/10/03 08:38:10;;;;;;;4.60;2.60;;;;;;;;;;5096311;28;20541;-73
2021/10/03 08:40:39;;;;;;;6.10;4.10;;;;;;;;;;5096796;28;20499;-72
2021/10/03 08:43:11;;;;;;;4.60;3.20;;;;;;;;;;5098347;28;20456;-72
2021/10/03 08:45:42;;;;;;;5.07;3.27;;;;;;;;;;5097084;28;20451;-71
2021/10/03 08:48:13;;;;;;;4.73;3.27;;;;;;;;;;5097092;28;20508;-71
2021/10/03 08:50:40;;;;;;;4.83;3.37;;;;;;;;;;5097332;28;20715;-73
2021/10/03 08:53:08;;;;;;;4.70;2.97;;;;;;;;;;5097993;28;20447;-73
2021/10/03 08:55:37;;;;;;;3.57;2.70;;;;;;;;;;5097151;28;20455;-73
2021/10/03 08:58:05;;;;;;;5.10;3.10;;;;;;;;;;5096258;28;20476;-73
2021/10/03 09:00:33;;;;;;;7.10;3.43;;;;;;;;;;5095957;28;20459;-72
2021/10/03 09:03:02;;;;;;;3.40;2.50;;;;;;;;;;5096028;28;20463;-71
2021/10/03 09:05:32;;;;;;;6.20;3.90;;;;;;;;;;5097162;28;20463;-72
2021/10/03 09:08:05;;;;;;;3.40;1.93;;;;;;;;;;5096081;28;20459;-73
2021/10/03 09:10:54;;;;;;;4.20;2.80;;;;;;;;;;5096258;28;20452;-73
2021/10/03 09:13:22;;;;;;;5.43;2.77;;;;;;;;;;5096736;28;20487;-72
2021/10/03 09:16:06;;;;;;;3.60;2.93;;;;;;;;;;5096373;28;20872;-73
2021/10/03 09:18:37;;;;;;;4.83;3.23;;;;;;;;;;5096364;28;20558;-72
2021/10/03 09:21:07;;;;;;;5.63;3.67;;;;;;;;;;5096221;28;20456;-73
2021/10/03 09:23:35;;;;;;;6.33;3.40;;;;;;;;;;5094954;28;20460;-72
2021/10/03 09:26:04;;;;;;;4.67;3.07;;;;;;;;;;5095096;28;20531;-71
2021/10/03 09:28:33;;;;;;;11.43;3.87;;;;;;;;;;5095042;28;20864;-73
2021/10/03 09:31:04;;;;;;;7.03;3.90;;;;;;;;;;5095596;28;20443;-73
2021/10/03 09:33:46;;;;;;;4.40;3.30;;;;;;;;;;5094983;28;20466;-72
2021/10/03 09:36:18;;;;;;;6.13;3.73;;;;;;;;;;5094648;28;20914;-73
2021/10/03 09:38:48;;;;;;;5.20;3.57;;;;;;;;;;5094818;28;20476;-72
2021/10/03 09:41:17;;;;;;;7.97;5.03;;;;;;;;;;5095525;28;20498;-73
2021/10/03 09:43:46;;;;;;;6.60;4.30;;;;;;;;;;5095674;28;21093;-73
2021/10/03 09:46:28;;;;;;;5.50;3.20;;;;;;;;;;5095940;28;20451;-71
2021/10/03 09:48:57;;;;;;;4.13;3.20;;;;;;;;;;5080284;28;20827;-73
2021/10/03 09:51:28;;;;;;;6.30;3.10;;;;;;;;;;5095652;28;20512;-72
2021/10/03 09:53:59;;;;;;;5.53;3.97;;;;;;;;;;5096449;28;20456;-72
2021/10/03 09:56:31;;;;;;;4.00;2.97;;;;;;;;;;5095729;28;20454;-73
2021/10/03 09:59:00;;;;;;;6.07;3.23;;;;;;;;;;5094572;28;21109;-71
2021/10/03 10:01:35;;;;;;;6.37;3.00;;;;;;;;;;5095078;28;20513;-71
2021/10/03 10:04:12;;;;;;;3.87;2.67;;;;;;;;;;5095244;28;20447;-73
2021/10/03 10:06:45;;;;;;;3.73;2.97;;;;;;;;;;5095725;28;20443;-71
2021/10/03 10:09:14;;;;;;;4.63;4.00;;;;;;;;;;5095269;28;20480;-72
2021/10/03 10:11:44;;;;;;;3.87;2.90;;;;;;;;;;5095248;28;20448;-71
2021/10/03 10:14:12;;;;;;;9.90;3.00;;;;;;;;;;5096157;28;20455;-73
2021/10/03 10:16:47;;;;;;;4.30;3.10;;;;;;;;;;5094200;28;20534;-73
2021/10/03 10:19:38;;;;;;;8.63;4.50;;;;;;;;;;5096219;28;20461;-71
2021/10/03 10:22:42;;;;;;;8.37;3.47;;;;;;;;;;5095862;28;20506;-71
2021/10/03 10:25:18;;;;;;;9.23;4.67;;;;;;;;;;5095066;28;20789;-71
2021/10/03 10:28:04;;;;;;;7.30;4.07;;;;;;;;;;5096267;28;20461;-70
2021/10/03 10:30:33;;;;;;;4.30;2.87;;;;;;;;;;5093873;28;20490;-70
2021/10/03 10:33:10;;;;;;;9.37;3.20;;;;;;;;;;5093238;28;20448;-73
2021/10/03 10:35:41;;;;;;;6.20;3.30;;;;;;;;;;5093193;28;20470;-72
2021/10/03 10:38:20;;;;;;;4.90;3.30;;;;;;;;;;5075517;28;20481;-72
2021/10/03 10:40:51;;;;;;;6.60;2.57;;;;;;;;;;5075832;28;20543;-72
2021/10/03 10:43:32;;;;;;;5.57;3.20;;;;;;;;;;5077488;28;20483;-71
2021/10/03 10:46:00;;;;;;;5.97;3.60;;;;;;;;;;5098596;28;20875;-72
2021/10/03 10:48:36;;;;;;;3.10;2.37;;;;;;;;;;5099466;28;20470;-71
2021/10/03 10:51:20;;;;;;;5.63;4.17;;;;;;;;;;5088851;28;20872;-72
2021/10/03 10:53:49;;;;;;;4.10;2.60;;;;;;;;;;5093601;28;20452;-72
2021/10/03 10:56:19;;;;;;;4.93;3.70;;;;;;;;;;5096615;28;21063;-71
2021/10/03 10:59:07;;;;;;;6.03;3.47;;;;;;;;;;5097510;28;20543;-72
2021/10/03 11:01:40;;;;;;;4.73;2.90;;;;;;;;;;5097391;28;20526;-71
2021/10/03 11:04:24;;;;;;;7.27;4.30;;;;;;;;;;5098909;28;20459;-71
2021/10/03 11:06:53;;;;;;;3.83;3.00;;;;;;;;;;5098911;28;20451;-72
2021/10/03 11:09:26;;;;;;;4.80;3.03;;;;;;;;;;5098435;28;20522;-71
2021/10/03 11:12:09;;;;;;;6.87;4.67;;;;;;;;;;5098168;28;20547;-71
2021/10/03 11:14:52;;;;;;;7.50;4.53;;;;;;;;;;5098611;28;20531;-71
2021/10/03 11:17:21;;;;;;;8.03;5.37;;;;;;;;;;5079127;28;20525;-71
2021/10/03 11:19:50;;;;;;;5.27;3.00;;;;;;;;;;5078268;28;20585;-71
2021/10/03 11:22:25;;;;;;;6.13;3.70;;;;;;;;;;5082582;28;20464;-72
2021/10/03 11:24:54;;;;;;;4.47;2.97;;;;;;;;;;5097580;28;20458;-72
2021/10/03 11:27:26;;;;;;;10.20;7.67;;;;;;;;;;5078400;28;20460;-73
2021/10/03 11:29:55;;;;;;;5.30;4.07;;;;;;;;;;5087372;28;20677;-73
2021/10/03 11:32:24;;;;;;;4.07;2.93;;;;;;;;;;5097355;28;20458;-72
2021/10/03 11:34:53;;;;;;;7.03;4.80;;;;;;;;;;5097052;28;20448;-73
2021/10/03 11:37:25;;;;;;;4.50;2.87;;;;;;;;;;5096964;28;20503;-72
2021/10/03 11:39:54;;;;;;;4.40;3.13;;;;;;;;;;5096806;28;20841;-72
2021/10/03 11:42:34;;;;;;;7.17;4.70;;;;;;;;;;5096686;28;20459;-73
2021/10/03 11:45:04;;;;;;;4.90;3.73;;;;;;;;;;5096329;28;20523;-73
2021/10/03 11:47:38;;;;;;;5.23;3.63;;;;;;;;;;5097131;28;20459;-72
2021/10/03 11:50:07;;;;;;;5.03;3.97;;;;;;;;;;5097038;28;20455;-73
2021/10/03 11:52:37;;;;;;;5.93;4.50;;;;;;;;;;5096726;28;20485;-72
2021/10/03 11:55:07;;;;;;;6.80;3.07;;;;;;;;;;5096526;28;20890;-73
2021/10/03 11:57:39;;;;;;;4.97;3.53;;;;;;;;;;5096637;28;20535;-72
2021/10/03 12:00:12;;;;;;;3.63;3.17;;;;;;;;;;5095341;28;20452;-73
2021/10/03 12:02:44;;;;;;;5.00;3.20;;;;;;;;;;5095379;28;20464;-73
2021/10/03 12:05:13;;;;;;;4.90;3.33;;;;;;;;;;5096841;28;20523;-72
2021/10/03 12:07:42;;;;;;;4.30;3.03;;;;;;;;;;5096367;28;20466;-71
2021/10/03 12:10:12;;;;;;;4.23;3.00;;;;;;;;;;5095905;28;20534;-72
2021/10/03 12:12:48;;;;;;;7.57;4.50;;;;;;;;;;5096806;28;20594;-73
2021/10/03 12:15:37;;;;;;;6.27;3.40;;;;;;;;;;5096494;28;20443;-73
2021/10/03 12:18:05;;;;;;;4.43;3.40;;;;;;;;;;5096175;28;20746;-73
2021/10/03 12:20:49;;;;;;;7.50;4.83;;;;;;;;;;5096015;28;20451;-73
2021/10/03 12:23:19;;;;;;;6.50;4.20;;;;;;;;;;5097394;28;20459;-72
2021/10/03 12:25:51;;;;;;;5.70;4.87;;;;;;;;;;5096539;28;20447;-71
2021/10/03 12:28:22;;;;;;;7.60;3.10;;;;;;;;;;5096123;28;20476;-72
2021/10/03 12:30:52;;;;;;;4.27;3.60;;;;;;;;;;5095693;28;20506;-72
2021/10/03 12:33:21;;;;;;;7.10;4.70;;;;;;;;;;5095097;28;20538;-72
2021/10/03 12:36:01;;;;;;;10.93;5.33;;;;;;;;;;5096067;28;20506;-72
2021/10/03 12:38:34;;;;;;;5.97;4.63;;;;;;;;;;5096069;28;20471;-71
2021/10/03 12:41:02;;;;;;;8.90;4.57;;;;;;;;;;5095789;28;20887;-71
2021/10/03 12:43:49;;;;;;;6.00;4.20;;;;;;;;;;5095386;28;20463;-71
2021/10/03 12:46:18;;;;;;;5.27;3.03;;;;;;;;;;5095456;28;20459;-71
2021/10/03 12:48:46;;;;;;;4.83;3.70;;;;;;;;;;5094457;28;20495;-72
2021/10/03 12:51:14;;;;;;;5.10;3.80;;;;;;;;;;5095243;28;20495;-72
2021/10/03 12:53:44;;;;;;;6.13;3.83;;;;;;;;;;5093974;28;20543;-72
2021/10/03 12:56:25;;;;;;;9.60;3.93;;;;;;;;;;5094100;28;20454;-72
2021/10/03 13:01:55;;;;;;;4.70;3.37;;;;;;;;;;5080602;28;20771;-72
2021/10/03 13:04:23;;;;;;;8.30;4.80;;;;;;;;;;5074650;28;20444;-72
2021/10/03 13:06:51;;;;;;;5.10;4.17;;;;;;;;;;5074657;28;20524;-72
2021/10/03 13:09:20;;;;;;;7.43;4.17;;;;;;;;;;5075179;28;20449;-72
2021/10/03 13:11:48;;;;;;;7.10;4.77;;;;;;;;;;5074226;28;20459;-71
2021/10/03 13:14:16;;;;;;;5.90;3.70;;;;;;;;;;5075062;28;20448;-72
2021/10/03 13:16:44;;;;;;;6.13;5.00;;;;;;;;;;5073776;28;20500;-71
2021/10/03 13:19:14;;;;;;;4.90;3.70;;;;;;;;;;5074584;28;20486;-72
2021/10/03 13:21:42;;;;;;;5.57;4.00;;;;;;;;;;5074784;28;20452;-72
2021/10/03 13:24:09;;;;;;;5.13;3.40;;;;;;;;;;5075259;28;20452;-72
2021/10/03 13:26:37;;;;;;;7.63;4.83;;;;;;;;;;5071457;28;20878;-72
2021/10/03 13:29:06;;;;;;;3.80;3.03;;;;;;;;;;5064474;28;20547;-72
2021/10/03 13:31:35;;;;;;;6.17;3.50;;;;;;;;;;5074876;28;20459;-72
2021/10/03 13:34:04;;;;;;;5.80;2.47;;;;;;;;;;5074421;28;20893;-71
2021/10/03 13:36:35;;;;;;;6.43;3.40;;;;;;;;;;5073901;28;20452;-72
2021/10/03 13:39:04;;;;;;;4.93;4.03;;;;;;;;;;5073480;28;20575;-71
2021/10/03 13:41:32;;;;;;;8.53;3.70;;;;;;;;;;5074592;28;20454;-71
2021/10/03 13:44:01;;;;;;;6.80;4.70;;;;;;;;;;5073770;28;20463;-72
2021/10/03 13:46:29;;;;;;;5.43;3.33;;;;;;;;;;5074734;28;20498;-72
2021/10/03 13:48:58;;;;;;;4.63;3.40;;;;;;;;;;5073085;28;20487;-71
2021/10/03 13:51:26;;;;;;;6.40;3.40;;;;;;;;;;5068475;28;20457;-72
2021/10/03 13:53:57;;;;;;;8.63;2.73;;;;;;;;;;5074334;28;20934;-73
2021/10/03 13:56:26;;;;;;;4.80;3.53;;;;;;;;;;5068584;28;20706;-71
2021/10/03 13:58:55;;;;;;;3.90;3.03;;;;;;;;;;5072424;28;20487;-71
2021/10/03 14:01:22;;;;;;;5.67;3.97;;;;;;;;;;5073487;28;20472;-71
2021/10/03 14:03:50;;;;;;;4.70;2.87;;;;;;;;;;5073904;28;20898;-72
2021/10/03 14:06:18;;;;;;;5.30;3.77;;;;;;;;;;5073809;28;20516;-71
2021/10/03 14:08:48;;;;;;;5.43;3.67;;;;;;;;;;5073971;28;20834;-71
2021/10/03 14:11:17;;;;;;;6.80;3.97;;;;;;;;;;5074001;28;20555;-71
2021/10/03 14:13:45;;;;;;;10.30;4.83;;;;;;;;;;5072797;28;20532;-71
2021/10/03 14:16:13;;;;;;;4.20;3.00;;;;;;;;;;5073150;28;20472;-71
2021/10/03 14:18:42;;;;;;;4.00;2.93;;;;;;;;;;5074019;28;20488;-71
2021/10/03 14:21:09;;;;;;;4.20;2.93;;;;;;;;;;5073824;28;20449;-70
2021/10/03 14:23:37;;;;;;;7.00;4.83;;;;;;;;;;5074442;28;20521;-71
2021/10/03 14:26:05;;;;;;;4.30;2.67;;;;;;;;;;5073490;28;20453;-71
2021/10/03 14:28:35;;;;;;;3.40;2.70;;;;;;;;;;5071981;28;20495;-70
2021/10/03 14:31:03;;;;;;;4.80;3.50;;;;;;;;;;5074534;28;20876;-72
2021/10/03 14:33:35;;;;;;;3.93;2.43;;;;;;;;;;5073843;28;20463;-71
2021/10/03 14:36:07;;;;;;;6.50;4.30;;;;;;;;;;5073108;28;20534;-72
2021/10/03 14:38:37;;;;;;;6.80;4.03;;;;;;;;;;5073404;28;20480;-72
2021/10/03 14:41:05;;;;;;;6.00;3.60;;;;;;;;;;5072670;28;20472;-71
2021/10/03 14:43:33;;;;;;;3.70;2.63;;;;;;;;;;5071613;28;20457;-71
2021/10/03 14:46:03;;;;;;;3.63;2.73;;;;;;;;;;5073976;28;20502;-71
2021/10/03 14:48:31;;;;;;;9.43;4.93;;;;;;;;;;5074154;28;20463;-71
2021/10/03 14:51:00;;;;;;;5.33;3.87;;;;;;;;;;5074149;28;20448;-71
2021/10/03 14:53:29;;;;;;;7.37;4.17;;;;;;;;;;5067251;28;20529;-71
2021/10/03 14:56:00;;;;;;;13.03;4.47;;;;;;;;;;5069062;28;20461;-72
2021/10/03 14:58:32;;;;;;;6.90;4.00;;;;;;;;;;5072789;28;20487;-71
2021/10/03 15:01:00;;;;;;;6.33;3.93;;;;;;;;;;5074607;28;20568;-72